createdAt,value
2019-05-18T00:02:03.144Z,15.40
2019-05-18T00:04:31.377Z,15.30
2019-05-18T00:06:59.661Z,15.30
2019-05-18T00:09:27.903Z,15.30
2019-05-18T00:11:56.349Z,15.30
2019-05-18T00:14:24.836Z,15.20
2019-05-18T00:16:53.056Z,15.20
2019-05-18T00:19:21.240Z,15.20
2019-05-18T00:21:49.441Z,15.20
2019-05-18T00:24:18.006Z,15.10
2019-05-18T00:26:46.206Z,15.10
2019-05-18T00:29:14.412Z,15.10
2019-05-18T00:31:42.685Z,15.10
2019-05-18T00:34:10.877Z,15.10
2019-05-18T00:36:39.078Z,15.00
2019-05-18T00:39:07.701Z,15.00
2019-05-18T00:41:35.927Z,15.00
2019-05-18T00:44:04.112Z,15.00
2019-05-18T00:46:32.325Z,14.90
2019-05-18T00:49:00.629Z,14.90
2019-05-18T00:51:28.844Z,14.90
2019-05-18T00:53:57.056Z,14.80
2019-05-18T00:56:25.272Z,14.80
2019-05-18T00:58:53.800Z,14.80
2019-05-18T01:01:22.017Z,14.80
2019-05-18T01:03:50.223Z,14.70
2019-05-18T01:06:18.426Z,14.60
2019-05-18T01:08:46.908Z,14.60
2019-05-18T01:11:15.111Z,14.60
2019-05-18T01:13:43.308Z,14.50
2019-05-18T01:16:11.537Z,14.50
2019-05-18T01:18:39.740Z,14.50
2019-05-18T01:21:07.944Z,14.50
2019-05-18T01:23:36.156Z,14.50
2019-05-18T01:26:04.365Z,14.40
2019-05-18T01:28:32.598Z,14.40
2019-05-18T01:31:00.771Z,14.40
2019-05-18T01:33:29.204Z,14.40
2019-05-18T01:35:57.399Z,14.40
2019-05-18T01:38:25.923Z,14.30
2019-05-18T01:40:54.394Z,14.30
2019-05-18T01:43:22.605Z,14.30
2019-05-18T01:45:50.808Z,14.20
2019-05-18T01:48:19.024Z,14.20
2019-05-18T01:50:47.211Z,14.30
2019-05-18T01:53:15.415Z,14.30
2019-05-18T01:55:43.609Z,14.20
2019-05-18T01:58:12.120Z,14.20
2019-05-18T02:00:40.315Z,14.20
2019-05-18T02:03:08.601Z,14.20
2019-05-18T02:05:36.807Z,14.10
2019-05-18T02:08:05.012Z,14.10
2019-05-18T02:10:33.216Z,14.00
2019-05-18T02:13:01.511Z,14.10
2019-05-18T02:15:29.872Z,14.00
2019-05-18T02:17:58.528Z,14.00
2019-05-18T02:20:27.009Z,14.00
2019-05-18T02:22:55.500Z,14.00
2019-05-18T02:25:23.685Z,13.90
2019-05-18T02:27:51.890Z,13.90
2019-05-18T02:30:20.087Z,13.90
2019-05-18T02:32:48.323Z,13.90
2019-05-18T02:35:16.576Z,13.90
2019-05-18T02:37:44.775Z,13.80
2019-05-18T02:40:12.972Z,13.80
2019-05-18T02:42:41.199Z,13.80
2019-05-18T02:45:09.522Z,13.80
2019-05-18T02:47:37.728Z,13.80
2019-05-18T02:50:07.476Z,13.80
2019-05-18T02:52:35.709Z,13.70
2019-05-18T02:55:05.534Z,13.70
2019-05-18T02:57:33.754Z,13.70
2019-05-18T03:00:02.409Z,13.70
2019-05-18T03:02:30.608Z,13.60
2019-05-18T03:04:58.820Z,13.60
2019-05-18T03:07:27.028Z,13.50
2019-05-18T03:09:55.232Z,13.50
2019-05-18T03:12:23.429Z,13.50
2019-05-18T03:14:51.643Z,13.50
2019-05-18T03:17:19.888Z,13.40
2019-05-18T03:19:48.432Z,13.40
2019-05-18T03:22:16.701Z,13.40
2019-05-18T03:24:45.058Z,13.40
2019-05-18T03:27:13.357Z,13.40
2019-05-18T03:29:41.559Z,13.40
2019-05-18T03:32:10.180Z,13.30
2019-05-18T03:34:38.495Z,13.20
2019-05-18T03:37:07.065Z,13.30
2019-05-18T03:39:35.264Z,13.30
2019-05-18T03:42:03.474Z,13.20
2019-05-18T03:44:31.680Z,13.20
2019-05-18T03:46:59.973Z,13.10
2019-05-18T03:49:28.193Z,13.10
2019-05-18T03:51:56.506Z,13.10
2019-05-18T03:54:24.773Z,13.00
2019-05-18T03:56:53.265Z,13.00
2019-05-18T03:59:21.479Z,13.00
2019-05-18T04:01:49.688Z,12.90
2019-05-18T04:04:18.663Z,12.90
2019-05-18T04:06:46.981Z,12.80
2019-05-18T04:09:15.172Z,12.80
2019-05-18T04:11:43.381Z,12.80
2019-05-18T04:14:11.579Z,12.80
2019-05-18T04:16:39.797Z,12.80
2019-05-18T04:19:07.996Z,12.80
2019-05-18T04:21:36.207Z,12.80
2019-05-18T04:24:04.423Z,12.80
2019-05-18T04:26:32.893Z,12.80
2019-05-18T04:29:01.126Z,12.80
2019-05-18T04:31:32.215Z,12.80
2019-05-18T04:33:59.573Z,12.80
2019-05-18T04:36:27.786Z,12.80
2019-05-18T04:38:55.971Z,12.80
2019-05-18T04:41:24.178Z,12.80
2019-05-18T04:43:52.381Z,12.80
2019-05-18T04:46:20.653Z,12.80
2019-05-18T04:48:48.874Z,12.70
2019-05-18T04:51:17.129Z,12.80
2019-05-18T04:53:45.331Z,12.70
2019-05-18T04:56:13.844Z,12.70
2019-05-18T04:58:42.044Z,12.80
2019-05-18T05:01:10.252Z,12.80
2019-05-18T05:03:38.457Z,12.70
2019-05-18T05:06:06.937Z,12.80
2019-05-18T05:08:35.136Z,12.80
2019-05-18T05:11:03.700Z,12.90
2019-05-18T05:13:31.892Z,12.90
2019-05-18T05:16:00.109Z,12.90
2019-05-18T05:18:28.732Z,12.90
2019-05-18T05:20:56.962Z,13.00
2019-05-18T05:23:25.159Z,13.00
2019-05-18T05:25:53.374Z,13.00
2019-05-18T05:28:21.569Z,13.10
2019-05-18T05:30:49.768Z,13.10
2019-05-18T05:33:17.992Z,13.10
2019-05-18T05:35:46.464Z,13.20
2019-05-18T05:38:14.674Z,13.20
2019-05-18T05:40:42.866Z,13.20
2019-05-18T05:43:11.088Z,13.30
2019-05-18T05:45:39.288Z,13.40
2019-05-18T05:48:07.531Z,13.40
2019-05-18T05:50:36.702Z,13.50
2019-05-18T05:53:05.463Z,13.50
2019-05-18T05:55:33.718Z,13.50
2019-05-18T05:58:02.319Z,13.60
2019-05-18T06:00:30.890Z,13.60
2019-05-18T06:02:59.404Z,13.70
2019-05-18T06:05:27.949Z,13.80
2019-05-18T06:07:56.149Z,13.80
2019-05-18T06:10:24.344Z,13.90
2019-05-18T06:12:52.866Z,14.00
2019-05-18T06:15:21.082Z,13.90
2019-05-18T06:17:49.297Z,14.00
2019-05-18T06:20:17.676Z,14.00
2019-05-18T06:22:46.315Z,14.00
2019-05-18T06:25:14.662Z,14.10
2019-05-18T06:27:43.160Z,14.10
2019-05-18T06:30:11.428Z,14.20
2019-05-18T06:32:39.678Z,14.20
2019-05-18T06:35:07.954Z,14.20
2019-05-18T06:37:36.162Z,14.40
2019-05-18T06:40:06.919Z,14.40
2019-05-18T06:42:35.113Z,14.40
2019-05-18T06:45:04.962Z,14.50
2019-05-18T06:47:33.252Z,14.60
2019-05-18T06:50:01.468Z,14.70
2019-05-18T06:52:29.665Z,14.70
2019-05-18T06:54:58.135Z,14.80
2019-05-18T06:57:26.371Z,14.80
2019-05-18T06:59:55.162Z,14.80
2019-05-18T07:02:23.402Z,14.90
2019-05-18T07:04:51.614Z,15.00
2019-05-18T07:07:19.797Z,15.00
2019-05-18T07:09:48.345Z,15.10
2019-05-18T07:12:16.535Z,15.10
2019-05-18T07:14:44.769Z,15.20
2019-05-18T07:17:13.086Z,15.20
2019-05-18T07:19:41.318Z,15.30
2019-05-18T07:22:09.616Z,15.30
2019-05-18T07:24:38.216Z,15.40
2019-05-18T07:27:06.665Z,15.40
2019-05-18T07:29:34.928Z,15.50
2019-05-18T07:32:03.144Z,15.60
2019-05-18T07:34:31.351Z,15.60
2019-05-18T07:37:00.092Z,15.70
2019-05-18T07:39:28.566Z,15.70
2019-05-18T07:41:56.852Z,15.70
2019-05-18T07:44:25.141Z,15.70
2019-05-18T07:46:53.340Z,15.70
2019-05-18T07:49:21.554Z,15.70
2019-05-18T07:51:49.776Z,15.70
2019-05-18T07:54:17.970Z,15.60
2019-05-18T07:56:46.175Z,15.70
2019-05-18T07:59:14.515Z,15.70
2019-05-18T08:01:42.728Z,15.80
2019-05-18T08:04:10.992Z,15.90
2019-05-18T08:06:39.197Z,16.00
2019-05-18T08:09:07.799Z,16.20
2019-05-18T08:11:36.006Z,16.30
2019-05-18T08:14:04.213Z,16.40
2019-05-18T08:16:32.425Z,16.40
2019-05-18T08:19:00.627Z,16.40
2019-05-18T08:21:28.846Z,16.50
2019-05-18T08:23:57.031Z,16.60
2019-05-18T08:26:25.502Z,16.70
2019-05-18T08:28:53.700Z,16.80
2019-05-18T08:31:21.944Z,16.90
2019-05-18T08:33:50.149Z,16.90
2019-05-18T08:36:18.366Z,17.00
2019-05-18T08:38:46.837Z,17.00
2019-05-18T08:41:15.049Z,17.10
2019-05-18T08:43:43.347Z,17.10
2019-05-18T08:46:11.834Z,17.10
2019-05-18T08:48:40.033Z,17.20
2019-05-18T08:51:08.233Z,17.20
2019-05-18T08:53:36.743Z,17.30
2019-05-18T08:56:04.936Z,17.40
2019-05-18T08:58:33.161Z,17.50
2019-05-18T09:01:01.369Z,17.60
2019-05-18T09:03:29.630Z,17.70
2019-05-18T09:05:57.848Z,17.80
2019-05-18T09:08:26.127Z,17.90
2019-05-18T09:10:54.326Z,17.90
2019-05-18T09:13:22.529Z,17.90
2019-05-18T09:15:50.976Z,18.00
2019-05-18T09:18:19.426Z,18.10
2019-05-18T09:20:47.884Z,18.30
2019-05-18T09:23:16.096Z,18.40
2019-05-18T09:25:44.292Z,18.50
2019-05-18T09:28:12.525Z,18.60
2019-05-18T09:30:41.375Z,18.70
2019-05-18T09:33:09.855Z,18.80
2019-05-18T09:35:38.064Z,18.90
2019-05-18T09:38:06.264Z,18.90
2019-05-18T09:40:34.472Z,19.00
2019-05-18T09:43:02.677Z,19.00
2019-05-18T09:45:30.943Z,19.10
2019-05-18T09:47:59.245Z,19.10
2019-05-18T09:50:27.440Z,19.20
2019-05-18T09:52:55.908Z,19.20
2019-05-18T09:55:24.115Z,19.30
2019-05-18T09:57:52.328Z,19.30
2019-05-18T10:00:20.525Z,19.40
2019-05-18T10:02:48.740Z,19.40
2019-05-18T10:05:17.260Z,19.50
2019-05-18T10:07:45.473Z,19.60
2019-05-18T10:10:13.697Z,19.70
2019-05-18T10:12:41.897Z,19.80
2019-05-18T10:15:10.103Z,19.90
2019-05-18T10:17:38.305Z,20.10
2019-05-18T10:20:07.341Z,20.20
2019-05-18T10:22:35.738Z,20.30
2019-05-18T10:25:06.862Z,20.30
2019-05-18T10:27:35.056Z,20.30
2019-05-18T10:30:06.876Z,20.30
2019-05-18T10:32:35.077Z,20.40
2019-05-18T10:35:03.753Z,20.50
2019-05-18T10:37:31.950Z,20.50
2019-05-18T10:40:00.449Z,20.60
2019-05-18T10:42:28.656Z,20.70
2019-05-18T10:44:56.865Z,20.70
2019-05-18T10:47:25.095Z,20.80
2019-05-18T10:49:53.305Z,20.90
2019-05-18T10:52:21.516Z,21.00
2019-05-18T10:54:50.166Z,21.10
2019-05-18T10:57:18.672Z,21.10
2019-05-18T10:59:46.868Z,21.20
2019-05-18T11:02:15.414Z,21.20
2019-05-18T11:04:43.633Z,21.30
2019-05-18T11:07:11.841Z,21.40
2019-05-18T11:09:40.328Z,21.50
2019-05-18T11:12:08.620Z,21.60
2019-05-18T11:14:36.821Z,21.60
2019-05-18T11:17:05.456Z,21.70
2019-05-18T11:19:33.684Z,21.70
2019-05-18T11:22:02.232Z,21.80
2019-05-18T11:24:30.436Z,21.80
2019-05-18T11:26:58.628Z,21.90
2019-05-18T11:29:26.890Z,21.90
2019-05-18T11:31:55.166Z,21.90
2019-05-18T11:34:23.368Z,22.10
2019-05-18T11:36:51.563Z,22.30
2019-05-18T11:39:20.077Z,22.40
2019-05-18T11:41:48.272Z,22.50
2019-05-18T11:44:16.651Z,22.50
2019-05-18T11:46:44.885Z,22.60
2019-05-18T11:49:13.101Z,22.70
2019-05-18T11:51:41.541Z,22.80
2019-05-18T11:54:09.787Z,22.90
2019-05-18T11:56:38.052Z,22.90
2019-05-18T11:59:06.573Z,22.80
2019-05-18T12:01:34.786Z,23.00
2019-05-18T12:04:02.988Z,23.10
2019-05-18T12:06:31.494Z,23.00
2019-05-18T12:08:59.692Z,23.00
2019-05-18T12:11:27.896Z,23.10
2019-05-18T12:13:56.108Z,23.20
2019-05-18T12:16:24.321Z,23.40
2019-05-18T12:18:52.781Z,23.40
2019-05-18T12:21:20.980Z,23.60
2019-05-18T12:23:49.189Z,23.70
2019-05-18T12:26:17.400Z,23.70
2019-05-18T12:28:45.606Z,23.70
2019-05-18T12:31:14.070Z,23.70
2019-05-18T12:33:42.316Z,23.70
2019-05-18T12:36:10.511Z,23.70
2019-05-18T12:38:38.730Z,23.60
2019-05-18T12:41:07.269Z,23.60
2019-05-18T12:43:35.752Z,23.60
2019-05-18T12:46:04.088Z,23.70
2019-05-18T12:48:32.318Z,23.60
2019-05-18T12:51:00.781Z,23.60
2019-05-18T12:53:29.026Z,23.50
2019-05-18T12:55:57.258Z,23.40
2019-05-18T12:58:25.713Z,23.40
2019-05-18T13:00:53.915Z,23.50
2019-05-18T13:03:22.125Z,23.70
2019-05-18T13:05:50.328Z,23.70
2019-05-18T13:08:18.519Z,23.90
2019-05-18T13:10:46.721Z,23.90
2019-05-18T13:13:15.163Z,23.90
2019-05-18T13:15:43.380Z,23.70
2019-05-18T13:18:11.589Z,23.60
2019-05-18T13:20:39.801Z,23.70
2019-05-18T13:23:08.005Z,23.70
2019-05-18T13:25:36.199Z,23.80
2019-05-18T13:28:04.502Z,24.00
2019-05-18T13:30:32.722Z,24.20
2019-05-18T13:33:00.941Z,24.40
2019-05-18T13:35:29.124Z,24.40
2019-05-18T13:37:57.337Z,24.40
2019-05-18T13:40:25.545Z,24.50
2019-05-18T13:42:53.770Z,24.40
2019-05-18T13:45:22.257Z,24.30
2019-05-18T13:47:50.471Z,24.20
2019-05-18T13:50:18.671Z,24.10
2019-05-18T13:52:46.882Z,24.00
2019-05-18T13:55:15.154Z,23.90
2019-05-18T13:57:43.364Z,23.70
2019-05-18T14:00:11.898Z,23.60
2019-05-18T14:02:40.109Z,23.60
2019-05-18T14:05:08.398Z,23.50
2019-05-18T14:07:36.608Z,23.40
2019-05-18T14:10:07.767Z,23.40
2019-05-18T14:12:35.975Z,23.30
2019-05-18T14:15:05.203Z,23.30
2019-05-18T14:17:33.427Z,23.20
2019-05-18T14:20:01.679Z,23.20
2019-05-18T14:22:29.881Z,23.20
2019-05-18T14:24:58.106Z,23.20
2019-05-18T14:27:26.299Z,23.10
2019-05-18T14:29:54.505Z,22.90
2019-05-18T14:32:22.700Z,22.30
2019-05-18T14:34:50.916Z,21.90
2019-05-18T14:37:19.229Z,21.40
2019-05-18T14:39:47.439Z,21.10
2019-05-18T14:42:15.956Z,20.90
2019-05-18T14:44:44.165Z,20.60
2019-05-18T14:47:12.360Z,20.50
2019-05-18T14:49:40.572Z,20.20
2019-05-18T14:52:11.964Z,20.10
2019-05-18T14:54:39.116Z,19.90
2019-05-18T14:57:07.378Z,19.70
2019-05-18T14:59:35.675Z,19.40
2019-05-18T15:02:03.880Z,19.40
2019-05-18T15:04:32.081Z,19.40
2019-05-18T15:07:00.273Z,19.50
2019-05-18T15:09:28.481Z,19.50
2019-05-18T15:11:56.691Z,19.60
2019-05-18T15:14:24.961Z,19.60
2019-05-18T15:16:53.321Z,19.70
2019-05-18T15:19:21.576Z,19.80
2019-05-18T15:21:49.781Z,19.70
2019-05-18T15:24:18.314Z,19.70
2019-05-18T15:26:46.772Z,19.70
2019-05-18T15:29:15.249Z,19.70
2019-05-18T15:31:43.566Z,19.60
2019-05-18T15:34:11.786Z,19.70
2019-05-18T15:36:40.327Z,19.70
2019-05-18T15:39:08.587Z,19.70
2019-05-18T15:41:36.865Z,19.70
2019-05-18T15:44:05.133Z,19.80
2019-05-18T15:46:33.373Z,19.80
2019-05-18T15:49:01.639Z,19.90
2019-05-18T15:51:30.064Z,19.90
2019-05-18T15:53:58.835Z,20.00
2019-05-18T15:56:27.052Z,20.10
2019-05-18T15:58:55.495Z,20.10
2019-05-18T16:01:23.742Z,20.20
2019-05-18T16:03:51.938Z,20.20
2019-05-18T16:06:20.154Z,20.30
2019-05-18T16:08:48.355Z,20.30
2019-05-18T16:11:16.566Z,20.30
2019-05-18T16:13:44.774Z,20.30
2019-05-18T16:16:12.989Z,20.30
2019-05-18T16:18:41.521Z,20.30
2019-05-18T16:21:10.086Z,20.40
2019-05-18T16:23:38.278Z,20.40
2019-05-18T16:26:20.741Z,20.40
2019-05-18T16:28:36.745Z,20.40
2019-05-18T16:31:04.965Z,20.50
2019-05-18T16:33:33.158Z,20.50
2019-05-18T16:36:01.422Z,20.50
2019-05-18T16:38:29.744Z,20.60
2019-05-18T16:40:57.944Z,20.70
2019-05-18T16:43:26.518Z,20.70
2019-05-18T16:45:54.723Z,20.80
2019-05-18T16:48:22.953Z,20.80
2019-05-18T16:50:51.152Z,20.90
2019-05-18T16:53:19.367Z,20.80
2019-05-18T16:55:47.568Z,20.90
2019-05-18T16:58:16.068Z,20.90
2019-05-18T17:00:44.286Z,20.90
2019-05-18T17:03:12.490Z,20.90
2019-05-18T17:05:40.692Z,20.90
2019-05-18T17:08:08.910Z,20.90
2019-05-18T17:10:37.340Z,20.90
2019-05-18T17:13:05.572Z,20.90
2019-05-18T17:15:34.105Z,20.90
2019-05-18T17:18:02.328Z,20.90
2019-05-18T17:20:30.989Z,20.90
2019-05-18T17:22:59.222Z,20.90
2019-05-18T17:25:27.727Z,20.90
2019-05-18T17:27:56.025Z,20.90
2019-05-18T17:30:24.288Z,20.90
2019-05-18T17:32:52.526Z,20.90
2019-05-18T17:35:20.724Z,20.90
2019-05-18T17:37:48.950Z,20.90
2019-05-18T17:40:17.158Z,20.90
2019-05-18T17:42:45.464Z,20.90
2019-05-18T17:45:13.687Z,20.90
2019-05-18T17:47:41.894Z,20.90
2019-05-18T17:50:11.205Z,20.90
2019-05-18T17:52:39.407Z,20.90
2019-05-18T17:55:07.798Z,20.90
2019-05-18T17:57:36.465Z,20.90
2019-05-18T18:00:08.273Z,20.90
2019-05-18T18:02:36.490Z,20.90
2019-05-18T18:05:07.934Z,20.90
2019-05-18T18:07:36.128Z,20.90
2019-05-18T18:10:05.601Z,20.80
2019-05-18T18:12:33.808Z,20.80
2019-05-18T18:15:02.039Z,20.80
2019-05-18T18:17:30.285Z,20.80
2019-05-18T18:19:58.725Z,20.80
2019-05-18T18:22:26.940Z,20.70
2019-05-18T18:24:55.155Z,20.70
2019-05-18T18:27:25.906Z,20.70
2019-05-18T18:29:53.589Z,20.70
2019-05-18T18:32:21.788Z,20.60
2019-05-18T18:34:50.228Z,20.60
2019-05-18T18:37:18.438Z,20.50
2019-05-18T18:39:46.665Z,20.30
2019-05-18T18:42:14.958Z,20.20
2019-05-18T18:44:43.201Z,20.00
2019-05-18T18:47:11.387Z,20.00
2019-05-18T18:49:39.585Z,19.90
2019-05-18T18:52:07.790Z,19.80
2019-05-18T18:54:35.989Z,19.60
2019-05-18T18:57:04.196Z,19.60
2019-05-18T18:59:32.397Z,19.60
2019-05-18T19:02:00.602Z,19.40
2019-05-18T19:04:29.113Z,19.30
2019-05-18T19:06:57.334Z,19.20
2019-05-18T19:09:25.535Z,19.20
2019-05-18T19:11:53.740Z,18.90
2019-05-18T19:14:22.017Z,18.80
2019-05-18T19:16:50.229Z,18.80
2019-05-18T19:19:18.425Z,18.60
2019-05-18T19:21:46.671Z,18.50
2019-05-18T19:24:14.867Z,18.40
2019-05-18T19:26:43.214Z,18.30
2019-05-18T19:29:11.673Z,18.20
2019-05-18T19:31:39.984Z,18.10
2019-05-18T19:34:08.424Z,17.90
2019-05-18T19:36:36.677Z,17.90
2019-05-18T19:39:06.208Z,17.80
2019-05-18T19:41:34.721Z,17.80
2019-05-18T19:44:03.069Z,17.80
2019-05-18T19:46:31.270Z,17.70
2019-05-18T19:48:59.468Z,17.70
2019-05-18T19:51:27.734Z,17.50
2019-05-18T19:53:55.925Z,17.40
2019-05-18T19:56:24.116Z,17.40
2019-05-18T19:58:52.337Z,17.30
2019-05-18T20:01:20.541Z,17.30
2019-05-18T20:03:48.743Z,17.20
2019-05-18T20:06:16.952Z,17.10
2019-05-18T20:08:45.413Z,17.10
2019-05-18T20:11:13.606Z,17.10
2019-05-18T20:13:41.806Z,17.10
2019-05-18T20:16:10.017Z,17.10
2019-05-18T20:18:39.227Z,17.00
2019-05-18T20:21:07.613Z,17.00
2019-05-18T20:23:35.937Z,16.90
2019-05-18T20:26:04.497Z,16.80
2019-05-18T20:28:32.737Z,16.80
2019-05-18T20:31:01.402Z,16.80
2019-05-18T20:33:29.910Z,16.80
2019-05-18T20:35:58.163Z,16.70
2019-05-18T20:38:26.446Z,16.80
2019-05-18T20:40:54.946Z,16.80
2019-05-18T20:43:23.182Z,16.70
2019-05-18T20:45:51.383Z,16.70
2019-05-18T20:48:19.573Z,16.70
2019-05-18T20:50:47.819Z,16.70
2019-05-18T20:53:16.013Z,16.70
2019-05-18T20:55:44.226Z,16.70
2019-05-18T20:58:12.431Z,16.60
2019-05-18T21:00:40.641Z,16.60
2019-05-18T21:03:08.856Z,16.50
2019-05-18T21:05:37.078Z,16.40
2019-05-18T21:08:05.347Z,16.30
2019-05-18T21:10:33.561Z,16.30
2019-05-18T21:13:01.774Z,16.20
2019-05-18T21:15:30.025Z,16.10
2019-05-18T21:17:58.652Z,16.10
2019-05-18T21:20:26.844Z,16.00
2019-05-18T21:22:55.036Z,15.90
2019-05-18T21:25:23.433Z,15.90
2019-05-18T21:27:51.748Z,15.80
2019-05-18T21:30:19.973Z,15.80
2019-05-18T21:32:48.176Z,15.70
2019-05-18T21:35:17.406Z,15.70
2019-05-18T21:37:45.579Z,15.70
2019-05-18T21:40:13.796Z,15.60
2019-05-18T21:42:42.253Z,15.50
2019-05-18T21:45:11.269Z,15.50
2019-05-18T21:47:39.468Z,15.50
2019-05-18T21:50:07.668Z,15.50
2019-05-18T21:52:35.944Z,15.50
2019-05-18T21:55:06.216Z,15.50
2019-05-18T21:57:34.425Z,15.50
2019-05-18T22:00:02.624Z,15.50
2019-05-18T22:02:30.819Z,15.60
2019-05-18T22:04:59.043Z,15.50
2019-05-18T22:07:27.577Z,15.50
2019-05-18T22:09:55.801Z,15.50
2019-05-18T22:12:24.741Z,15.40
2019-05-18T22:14:53.440Z,15.40
2019-05-18T22:17:21.735Z,15.40
2019-05-18T22:19:49.933Z,15.40
2019-05-18T22:22:18.149Z,15.40
2019-05-18T22:24:46.350Z,15.40
2019-05-18T22:27:14.547Z,15.40
2019-05-18T22:29:44.260Z,15.40
2019-05-18T22:32:12.518Z,15.40
2019-05-18T22:34:40.709Z,15.40
2019-05-18T22:37:08.960Z,15.40
2019-05-18T22:39:37.731Z,15.40
2019-05-18T22:42:06.412Z,15.40
2019-05-18T22:44:34.895Z,15.30
2019-05-18T22:47:03.103Z,15.40
2019-05-18T22:49:31.303Z,15.40
2019-05-18T22:51:59.499Z,15.40
2019-05-18T22:54:27.713Z,15.40
2019-05-18T22:56:55.915Z,15.30
2019-05-18T22:59:24.135Z,15.30
2019-05-18T23:01:52.329Z,15.30
2019-05-18T23:04:20.520Z,15.30
2019-05-18T23:06:48.712Z,15.30
2019-05-18T23:09:16.922Z,15.30
2019-05-18T23:11:45.122Z,15.30
2019-05-18T23:14:13.332Z,15.30
2019-05-18T23:16:41.616Z,15.30
2019-05-18T23:19:09.823Z,15.30
2019-05-18T23:21:38.044Z,15.30
2019-05-18T23:24:06.517Z,15.30
2019-05-18T23:26:35.094Z,15.30
2019-05-18T23:29:03.289Z,15.30
2019-05-18T23:31:31.723Z,15.30
2019-05-18T23:34:00.256Z,15.30
2019-05-18T23:36:28.443Z,15.30
2019-05-18T23:38:56.972Z,15.20
2019-05-18T23:41:25.177Z,15.20
2019-05-18T23:43:53.384Z,15.20
2019-05-18T23:46:21.657Z,15.20
2019-05-18T23:48:49.851Z,15.30
2019-05-18T23:51:18.068Z,15.20
2019-05-18T23:53:46.336Z,15.20
2019-05-18T23:56:14.845Z,15.20
2019-05-18T23:58:43.048Z,15.20
